West Chester, OH (45069)

1:40 PM EST on December 10, 2016 (GMT -0500)
West Chester | | Change Station

Elev 833 ft 39.35 °N, 84.41 °W | Updated 3 seconds ago

Overcast
Overcast
30.4 °F
Feels Like 30 °F
N
0.0
Wind Variable Wind from North
Gusts 0.0 mph

Today
High -- | Low -- °F
--% Chance of Precip.
Yesterday
High -- | Low -- °F
Precip. -- in
Pressure 30.58 in
Visibility 10.0 miles
Clouds Overcast 2600 ft
Windchill 30 °F
Dew Point 22 °F
Humidity 71%
Rainfall 0.00 in
Snow Depth Not available.
7:47 AM 5:14 PM
Waxing Gibbous, 85% visible
METAR KHAO 101753Z AUTO 26009KT 10SM OVC026 M02/M08 A3055 RMK AO2 SLP355 T10171078 11011 21056 58012
Pressure 30.58 in
Visibility 10.0 miles
Clouds Overcast 2600 ft
Windchill 30 °F
Dew Point 22 °F
Humidity 71%
Rainfall 0.00 in
Snow Depth Not available.
7:47 AM 5:14 PM
Waxing Gibbous, 85% visible
METAR KHAO 101753Z AUTO 26009KT 10SM OVC026 M02/M08 A3055 RMK AO2 SLP355 T10171078 11011 21056 58012

10-Day Weather Forecast

Almanac

Astronomy

Dec. 10, 2016 Rise Set
Actual Time
Civil Twilight
Nautical Twilight
Astronomical Twilight
Moon
Length of Visible Light
Length of Day
Tomorrow will be .
, % of the Moon is Illuminated

Today's Extremes

State Highs State Lows

Community

WunderPhotos

Upload Photos

1,956,619 photos uploaded!

WunderBlog® & News

Nearby

Air Quality

  Air Quality AQ Index Pollutant
Not available.

Snow Depth

Station Depth Elevation

Earthquake Activity

City Distance Mag. Time & Date
Minimum magnitude displayed is 2.5.

Coastal Water Temperatures

Place Temperature

Stations

Nearby Weather Stations

Station Location Temp. Windchill Dew Point Humidity Wind Precip. Elev Updated Type
                   

Watches & Warnings

There are currently no watches in effect.